Terminal Aerodrome Forecast
Issued by NWS

Home | Current Version | Previous Version | Text Only | Print | Product List | Glossary On
Versions: 1 2 3 4 5 6 7 8 9 10 11 12 13 14 15 16 17 18 19 20 21 22 23 24 25 26 27 28 29 30 31 32 33 34 35 36 37 38 39
000
FTUS45 KGJT 251601 AAA
TAFVEL
TAF AMD
KVEL 251601Z 2516/2612 VRB03KT P6SM -RA FEW050 BKN080 OVC100
     FM251700 VRB04KT P6SM VCSH SCT040 OVC080
     FM252000 16007KT P6SM VCSH SCT040 BKN070
     FM260100 27007KT P6SM SCT100 BKN150=

USA.gov is the U.S. government's official web portal to all federal, state and local government web resources and services.